Time;durP1;ratioP1;P1;durP2;ratioP2;P2;SDS_P1;SDS_P2;PMS_P1;PMS_P2;Temp;Humidity;BMP_temperature;BMP_pressure;BME280_temperature;BME280_humidity;BME280_pressure;Samples;Min_cycle;Max_cycle;Signal;HPM_P1;HPM_P2
2022/06/14 00:01:09;;;;;;;5.03;3.40;;;20.40;98.80;;;20.81;66.97;94932.84;5080812;28;20866;-54
2022/06/14 00:03:38;;;;;;;4.57;3.40;;;20.40;98.80;;;20.81;67.30;94932.84;5068576;28;20459;-56
2022/06/14 00:06:07;;;;;;;4.10;3.73;;;20.40;99.00;;;20.79;67.34;94922.34;5077556;28;20492;-52
2022/06/14 00:08:34;;;;;;;3.60;3.40;;;20.30;99.00;;;20.76;67.34;94926.22;5067862;28;20454;-55
2022/06/14 00:11:07;;;;;;;6.33;4.40;;;20.40;99.10;;;20.73;67.54;94923.97;5077891;28;20509;-55
2022/06/14 00:13:35;;;;;;;4.10;3.80;;;20.30;99.20;;;20.70;67.48;94920.88;5075620;28;20450;-53
2022/06/14 00:16:02;;;;;;;5.00;4.10;;;20.30;99.30;;;20.67;67.74;94921.28;5074499;28;20497;-58
2022/06/14 00:18:29;;;;;;;10.90;3.70;;;20.20;99.40;;;20.63;67.82;94922.66;5079667;28;20465;-55
2022/06/14 00:20:57;;;;;;;4.77;4.10;;;20.20;99.40;;;20.59;67.65;94919.56;5068367;28;21016;-55
2022/06/14 00:23:24;;;;;;;3.80;3.57;;;20.20;99.40;;;20.56;67.75;94911.97;5068956;28;20457;-56
2022/06/14 00:25:54;;;;;;;4.07;3.47;;;20.20;99.40;;;20.52;67.87;94913.38;5072020;28;20502;-60
2022/06/14 00:28:23;;;;;;;3.90;3.70;;;20.10;99.40;;;20.48;67.50;94914.78;5068396;28;20572;-57
2022/06/14 00:30:52;;;;;;;5.03;4.13;;;20.10;99.40;;;20.42;67.66;94919.09;5078281;28;20481;-56
2022/06/14 00:33:19;;;;;;;4.73;4.27;;;20.00;99.30;;;20.36;67.95;94928.72;5067052;28;20462;-55
2022/06/14 00:35:46;;;;;;;6.13;3.67;;;20.00;99.50;;;20.37;68.27;94929.53;5078474;28;20474;-56
2022/06/14 00:38:14;;;;;;;9.80;4.60;;;20.00;99.90;;;20.35;68.90;94937.75;5078779;28;20465;-52
2022/06/14 00:40:42;;;;;;;9.23;4.27;;;20.00;99.90;;;20.34;68.38;94932.63;5072817;28;20500;-55
2022/06/14 00:43:15;;;;;;;3.90;3.60;;;19.90;99.90;;;20.31;68.79;94941.88;5084768;28;20450;-55
2022/06/14 00:46:18;;;;;;;4.47;4.00;;;19.90;99.90;;;20.30;69.13;94940.22;5070338;28;20538;-56
2022/06/14 00:48:50;;;;;;;5.30;4.83;;;19.90;99.90;;;20.28;69.12;94944.94;5072263;28;20485;-56
2022/06/14 00:51:21;;;;;;;5.17;4.77;;;19.80;99.90;;;20.27;68.96;94942.47;5075887;28;20474;-55
2022/06/14 00:53:54;;;;;;;5.10;4.70;;;19.90;99.90;;;20.24;69.07;94943.69;5067739;28;20452;-51
2022/06/14 00:56:25;;;;;;;7.27;4.90;;;19.80;99.90;;;20.21;69.35;94942.22;5073614;28;20470;-55
2022/06/14 00:58:55;;;;;;;5.33;4.83;;;19.80;99.90;;;20.19;69.42;94938.13;5082968;28;20460;-53
2022/06/14 01:01:26;;;;;;;11.70;5.67;;;19.80;99.90;;;20.17;70.14;94937.47;5069233;28;20481;-55
2022/06/14 01:03:57;;;;;;;7.53;5.00;;;19.80;99.90;;;20.11;69.94;94938.25;5066298;28;20450;-55
2022/06/14 01:06:28;;;;;;;6.77;4.57;;;19.70;99.90;;;20.05;69.15;94932.69;5076838;28;20480;-53
2022/06/14 01:09:00;;;;;;;5.10;4.77;;;19.70;99.90;;;20.01;69.41;94930.59;5079888;28;20466;-55
2022/06/14 01:11:31;;;;;;;6.10;4.53;;;19.60;99.90;;;19.97;69.60;94927.53;5074448;28;20478;-55
2022/06/14 01:14:00;;;;;;;5.37;4.23;;;19.60;99.90;;;19.94;69.47;94929.75;5083311;28;20442;-55
2022/06/14 01:16:30;;;;;;;11.20;4.37;;;19.50;99.90;;;19.90;69.65;94933.84;5075462;28;20473;-54
2022/06/14 01:18:57;;;;;;;5.03;4.63;;;19.50;99.90;;;19.85;69.69;94934.44;5073025;28;20451;-56
2022/06/14 01:21:25;;;;;;;4.27;3.93;;;19.40;99.90;;;19.78;69.47;94926.34;5074540;28;20482;-54
2022/06/14 01:23:53;;;;;;;6.13;4.17;;;19.40;99.90;;;19.71;69.48;94918.28;5079948;28;20489;-53
2022/06/14 01:26:24;;;;;;;7.93;5.13;;;19.30;99.90;;;19.65;69.58;94919.06;5080202;28;20485;-55
2022/06/14 01:28:55;;;;;;;13.00;4.33;;;19.30;99.90;;;19.59;70.07;94903.84;5078832;28;20830;-55
2022/06/14 01:31:22;;;;;;;8.30;4.00;;;19.20;99.90;;;19.55;69.99;94915.94;5085185;28;20697;-56
2022/06/14 01:33:51;;;;;;;7.53;4.40;;;19.20;99.90;;;19.51;69.71;94917.34;5077805;28;20461;-53
2022/06/14 01:36:25;;;;;;;4.27;3.93;;;19.10;99.90;;;19.49;70.28;94920.19;5082192;28;20858;-55
2022/06/14 01:38:54;;;;;;;7.07;4.80;;;19.10;99.90;;;19.48;70.38;94920.38;5080822;28;20469;-52
2022/06/14 01:41:31;;;;;;;6.83;4.73;;;19.10;99.90;;;19.47;70.66;94916.91;5079182;28;20534;-56
2022/06/14 01:44:13;;;;;;;7.73;4.23;;;19.10;99.90;;;19.45;70.92;94918.09;5082711;28;20550;-53
2022/06/14 01:46:45;;;;;;;4.87;4.10;;;19.10;99.90;;;19.42;70.56;94927.31;5070990;28;20454;-55
2022/06/14 01:52:23;;;;;;;10.50;4.80;;;19.00;99.90;;;19.37;71.25;94931.59;5075717;28;20871;-56
2022/06/14 01:54:58;;;;;;;5.60;5.20;;;19.00;99.90;;;19.33;71.57;94939.97;5081399;28;20534;-55
2022/06/14 01:57:31;;;;;;;8.30;4.37;;;18.90;99.90;;;19.32;71.29;94942.84;5085680;28;20441;-55
2022/06/14 02:00:04;;;;;;;4.67;4.37;;;18.90;99.90;;;19.29;71.38;94936.03;5079854;28;20535;-56
2022/06/14 02:02:36;;;;;;;12.33;4.57;;;18.90;99.90;;;19.29;70.96;94941.38;5084840;28;20958;-55
2022/06/14 02:05:06;;;;;;;5.90;4.80;;;18.90;99.90;;;19.27;71.16;94935.41;5081232;28;20495;-53
2022/06/14 02:07:38;;;;;;;9.97;5.20;;;18.90;99.90;;;19.25;71.46;94940.09;5082905;28;20489;-56
2022/06/14 02:10:11;;;;;;;4.93;4.63;;;18.90;99.90;;;19.24;71.73;94938.47;5069765;28;21036;-53
2022/06/14 02:12:45;;;;;;;4.80;4.50;;;18.90;99.90;;;19.22;71.59;94934.34;5077128;28;20540;-55
2022/06/14 02:15:19;;;;;;;5.20;4.70;;;18.80;99.90;;;19.17;71.52;94932.25;5079323;28;21145;-55
2022/06/14 02:17:49;;;;;;;10.33;5.37;;;18.80;99.90;;;19.17;71.30;94942.91;5072124;28;20966;-55
2022/06/14 02:20:20;;;;;;;7.20;4.77;;;18.80;99.90;;;19.14;71.73;94943.28;5078927;28;20842;-56
2022/06/14 02:22:51;;;;;;;5.30;5.00;;;18.80;99.90;;;19.12;71.46;94950.66;5076064;28;20448;-53
2022/06/14 02:25:23;;;;;;;7.17;5.40;;;18.70;99.90;;;19.10;71.46;94958.84;5072855;28;20485;-55
2022/06/14 02:27:53;;;;;;;8.43;4.20;;;18.70;99.90;;;19.09;72.11;94956.38;5075743;28;20486;-55
2022/06/14 02:30:23;;;;;;;6.40;5.67;;;18.70;99.90;;;19.06;71.70;94962.09;5083447;28;20469;-55
2022/06/14 02:32:53;;;;;;;8.73;5.30;;;18.70;99.90;;;19.06;72.10;94956.75;5077130;28;20454;-55
2022/06/14 02:35:22;;;;;;;8.37;5.27;;;18.70;99.90;;;19.05;71.45;94963.09;5078112;28;20474;-55
2022/06/14 02:37:53;;;;;;;6.67;5.80;;;18.70;99.90;;;19.03;71.64;94973.13;5084276;28;20463;-57
2022/06/14 02:40:25;;;;;;;5.77;5.03;;;18.70;99.90;;;19.01;71.88;94967.13;5075521;28;20856;-53
2022/06/14 02:42:54;;;;;;;5.50;4.60;;;18.60;99.90;;;18.99;71.71;94973.50;5071023;28;21671;-54
2022/06/14 02:45:24;;;;;;;9.60;5.37;;;18.60;99.90;;;18.95;72.07;94972.22;5077030;28;20480;-53
2022/06/14 02:47:54;;;;;;;9.00;5.50;;;18.60;99.90;;;18.92;72.22;94972.59;5074294;28;20497;-56
2022/06/14 02:50:24;;;;;;;10.93;5.17;;;18.60;99.90;;;18.87;71.96;94969.69;5073927;28;20485;-55
2022/06/14 02:52:54;;;;;;;6.73;5.30;;;18.50;99.90;;;18.86;72.42;94973.34;5086079;28;20450;-55
2022/06/14 02:55:25;;;;;;;17.30;4.90;;;18.50;99.90;;;18.83;72.36;94973.69;5082899;28;20496;-53
2022/06/14 02:57:56;;;;;;;5.20;4.70;;;18.50;99.90;;;18.85;72.22;94976.22;5085416;28;20442;-54
2022/06/14 03:00:25;;;;;;;9.90;5.40;;;18.50;99.90;;;18.84;72.60;94972.69;5077725;28;20888;-57
2022/06/14 03:02:55;;;;;;;5.73;5.33;;;18.50;99.90;;;18.84;72.66;94979.84;5081835;28;20450;-55
2022/06/14 03:05:26;;;;;;;5.17;4.77;;;18.50;99.90;;;18.85;72.63;94984.19;5073516;28;21002;-56
2022/06/14 03:08:02;;;;;;;5.10;4.60;;;18.50;99.90;;;18.85;72.81;94987.69;5079648;28;20536;-56
2022/06/14 03:10:38;;;;;;;5.67;5.07;;;18.50;99.90;;;18.85;73.03;94985.03;5079957;28;20481;-56
2022/06/14 03:13:09;;;;;;;6.27;5.67;;;18.50;99.90;;;18.85;73.28;94982.34;5080215;28;20532;-56
2022/06/14 03:15:40;;;;;;;5.90;5.30;;;18.50;99.90;;;18.85;72.61;94993.00;5072651;28;20474;-55
2022/06/14 03:18:14;;;;;;;6.37;5.80;;;18.50;99.90;;;18.86;73.26;94992.00;5076958;28;20462;-53
2022/06/14 03:20:59;;;;;;;12.80;5.60;;;18.50;99.90;;;18.87;73.07;94985.69;5079283;28;20480;-55
2022/06/14 03:23:34;;;;;;;5.87;5.37;;;18.50;99.90;;;18.89;72.95;94983.63;5076859;28;20457;-56
2022/06/14 03:26:06;;;;;;;6.30;5.50;;;18.50;99.90;;;18.92;73.49;94987.78;5075539;28;20488;-55
2022/06/14 03:28:39;;;;;;;12.43;6.90;;;18.50;99.90;;;18.92;73.15;94985.13;5083179;28;20511;-57
2022/06/14 03:31:09;;;;;;;9.63;5.70;;;18.60;99.90;;;18.89;73.14;94985.50;5074741;28;20474;-57
2022/06/14 03:33:40;;;;;;;9.13;6.80;;;18.60;99.90;;;18.89;72.92;94985.50;5084879;28;20452;-53
2022/06/14 03:36:10;;;;;;;6.93;5.20;;;18.50;99.90;;;18.88;73.40;94986.50;5079049;28;20479;-56
2022/06/14 03:38:41;;;;;;;7.27;6.50;;;18.50;99.90;;;18.92;73.21;94988.59;5078039;28;20464;-54
2022/06/14 03:41:11;;;;;;;7.23;5.37;;;18.50;99.90;;;18.96;73.09;94994.38;5070521;28;20520;-57
2022/06/14 03:43:39;;;;;;;5.87;5.23;;;18.60;99.90;;;18.99;73.48;94993.97;5077134;28;20458;-56
2022/06/14 03:46:15;;;;;;;9.77;5.40;;;18.60;99.90;;;19.04;73.43;94998.75;5075334;28;20474;-55
2022/06/14 03:48:45;;;;;;;8.17;5.77;;;18.70;99.90;;;19.09;73.11;94999.03;5078917;28;20477;-54
2022/06/14 03:51:17;;;;;;;6.47;5.43;;;18.70;99.90;;;19.16;72.95;95005.25;5076725;28;20998;-56
2022/06/14 03:54:06;;;;;;;9.40;5.80;;;18.80;99.90;;;19.26;73.33;95004.94;5082348;28;20933;-56
2022/06/14 03:56:48;;;;;;;9.70;5.80;;;18.80;99.90;;;19.34;73.43;95008.28;5067315;28;20478;-54
2022/06/14 03:59:40;;;;;;;9.23;6.53;;;18.90;99.90;;;19.43;73.03;94997.50;5072273;28;20463;-55
2022/06/14 04:02:11;;;;;;;12.53;6.07;;;19.00;99.90;;;19.46;72.76;95000.59;5070988;28;20447;-56
2022/06/14 04:04:49;;;;;;;8.53;5.90;;;19.10;99.90;;;19.55;72.59;95003.97;5076510;28;20474;-55
2022/06/14 04:07:24;;;;;;;13.63;7.30;;;19.10;99.90;;;19.65;72.42;94995.63;5081798;28;20917;-56
2022/06/14 04:09:55;;;;;;;7.93;5.80;;;19.20;99.90;;;19.76;72.66;95004.97;5080377;28;20489;-55
2022/06/14 04:12:30;;;;;;;9.43;5.83;;;19.30;99.90;;;19.88;71.91;95006.13;5082476;28;20445;-57
2022/06/14 04:15:12;;;;;;;8.93;5.70;;;19.40;99.90;;;20.02;72.18;94999.84;5083646;28;20481;-54
2022/06/14 04:17:46;;;;;;;10.50;5.70;;;19.60;99.90;;;20.13;71.60;94997.66;5080750;28;20442;-55
2022/06/14 04:20:18;;;;;;;14.37;5.60;;;19.70;99.90;;;20.25;71.33;94998.75;5075314;28;20483;-56
2022/06/14 04:22:54;;;;;;;13.67;6.10;;;19.80;99.90;;;20.34;71.15;95000.25;5070165;28;20461;-55
2022/06/14 04:25:31;;;;;;;11.10;6.00;;;19.90;99.90;;;20.44;71.11;95018.56;5071812;28;20576;-53
2022/06/14 04:28:06;;;;;;;6.10;5.27;;;20.00;99.90;;;20.55;70.68;95011.84;5082437;28;20981;-55
2022/06/14 04:30:40;;;;;;;6.90;5.60;;;20.10;99.90;;;20.66;70.73;95016.66;5074926;28;20473;-54
2022/06/14 04:33:11;;;;;;;14.63;5.87;;;20.20;99.90;;;20.76;70.34;95010.97;5079584;28;20954;-55
2022/06/14 04:35:43;;;;;;;6.57;5.97;;;20.30;99.90;;;20.86;70.24;95023.94;5077736;28;20505;-56
2022/06/14 04:38:15;;;;;;;6.70;5.20;;;20.40;99.90;;;20.93;69.68;95022.13;5079805;28;20506;-57
2022/06/14 04:40:44;;;;;;;12.00;5.80;;;20.50;99.90;;;21.00;69.65;95022.94;5079100;28;20485;-55
2022/06/14 04:43:15;;;;;;;7.10;5.60;;;20.60;99.90;;;21.12;69.65;95028.56;5077007;28;20481;-56
2022/06/14 04:45:47;;;;;;;6.90;4.90;;;20.70;99.90;;;21.19;69.47;95025.88;5070183;28;20558;-55
2022/06/14 04:48:16;;;;;;;8.80;5.50;;;20.70;99.90;;;21.24;69.41;95032.28;5064378;28;20479;-55
2022/06/14 04:50:46;;;;;;;19.03;5.47;;;20.80;99.90;;;21.29;68.99;95026.34;5069663;28;20486;-55
2022/06/14 04:53:18;;;;;;;14.40;5.37;;;20.80;99.90;;;21.34;69.15;95036.44;5075562;28;20999;-55
2022/06/14 04:55:49;;;;;;;7.83;5.80;;;20.90;99.90;;;21.38;68.88;95041.16;5065210;28;20501;-52
2022/06/14 04:58:21;;;;;;;19.10;6.63;;;20.90;99.90;;;21.40;68.87;95043.66;5073146;28;20550;-55
2022/06/14 05:00:51;;;;;;;10.20;6.20;;;21.00;99.90;;;21.41;68.82;95038.09;5073452;28;20477;-57
2022/06/14 05:03:22;;;;;;;14.80;6.87;;;21.00;99.90;;;21.42;68.64;95042.41;5071469;28;20507;-55
2022/06/14 05:05:51;;;;;;;15.47;7.00;;;21.00;99.90;;;21.43;68.60;95040.56;5071257;28;20486;-55
2022/06/14 05:08:22;;;;;;;16.13;7.13;;;21.00;99.90;;;21.45;68.50;95042.00;5064688;28;20497;-55
2022/06/14 05:10:52;;;;;;;14.50;7.07;;;21.00;99.90;;;21.50;68.24;95044.09;5078212;28;20484;-56
2022/06/14 05:13:25;;;;;;;15.10;6.70;;;21.10;99.90;;;21.55;68.70;95062.22;5084109;28;21011;-53
2022/06/14 05:15:56;;;;;;;10.53;5.20;;;21.10;99.90;;;21.57;68.59;95055.63;5085540;28;20465;-57
2022/06/14 05:18:28;;;;;;;15.83;6.57;;;21.10;99.90;;;21.61;68.17;95056.88;5078965;28;20443;-56
2022/06/14 05:20:58;;;;;;;10.10;6.63;;;21.20;99.90;;;21.66;68.09;95054.41;5086384;28;20523;-56
2022/06/14 05:23:27;;;;;;;15.07;6.00;;;21.20;99.90;;;21.70;68.48;95057.50;5083219;28;20461;-56
2022/06/14 05:26:00;;;;;;;9.03;6.20;;;21.30;99.90;;;21.72;68.22;95063.50;5082963;28;20478;-55
2022/06/14 05:28:34;;;;;;;13.23;5.77;;;21.30;99.90;;;21.73;68.21;95059.75;5082621;28;20883;-57
2022/06/14 05:31:11;;;;;;;5.33;4.80;;;21.30;99.90;;;21.76;68.54;95063.91;5082139;28;20827;-53
2022/06/14 05:33:44;;;;;;;12.27;5.67;;;21.30;99.90;;;21.80;68.35;95076.66;5083307;28;20444;-52
2022/06/14 05:36:15;;;;;;;9.23;5.37;;;21.40;99.90;;;21.85;68.16;95070.69;5083875;28;20484;-58
2022/06/14 05:38:46;;;;;;;7.17;6.27;;;21.40;99.90;;;21.90;68.42;95080.81;5076233;28;20461;-56
2022/06/14 05:41:17;;;;;;;7.63;5.70;;;21.50;99.90;;;21.92;67.95;95076.91;5081010;28;20866;-56
2022/06/14 05:43:48;;;;;;;8.90;5.20;;;21.50;99.90;;;21.95;68.12;95078.31;5083168;28;20553;-56
2022/06/14 05:46:24;;;;;;;11.67;6.80;;;21.50;99.90;;;21.99;67.90;95084.94;5082941;28;20554;-54
2022/06/14 05:48:56;;;;;;;7.03;6.50;;;21.50;99.90;;;22.04;68.35;95090.47;5078828;28;20538;-56
2022/06/14 05:51:25;;;;;;;7.93;5.93;;;21.60;99.90;;;22.09;67.67;95095.22;5078855;28;21305;-55
2022/06/14 05:53:57;;;;;;;7.60;6.07;;;21.60;99.90;;;22.11;67.64;95088.63;5083074;28;20456;-55
2022/06/14 05:56:31;;;;;;;16.93;6.50;;;21.70;99.90;;;22.15;67.69;95089.88;5079046;28;20478;-56
2022/06/14 05:59:05;;;;;;;9.17;5.43;;;21.70;99.90;;;22.20;68.03;95086.59;5079864;28;20440;-55
2022/06/14 06:01:35;;;;;;;12.50;6.03;;;21.70;99.90;;;22.25;68.20;95088.63;5084502;28;20465;-56
2022/06/14 06:04:06;;;;;;;10.93;5.40;;;21.80;99.90;;;22.30;68.16;95094.19;5081087;28;20510;-57
2022/06/14 06:06:36;;;;;;;7.00;6.43;;;21.90;99.90;;;22.34;67.48;95093.59;5081806;28;20542;-55
2022/06/14 06:09:07;;;;;;;8.63;6.13;;;21.90;99.90;;;22.39;67.51;95098.34;5078567;28;20489;-55
2022/06/14 06:11:37;;;;;;;6.27;5.67;;;21.90;99.90;;;22.41;67.81;95092.78;5075023;28;20699;-57
2022/06/14 06:14:08;;;;;;;8.43;6.03;;;22.00;99.90;;;22.44;68.10;95098.53;5086842;28;20517;-54
2022/06/14 06:16:37;;;;;;;9.13;6.20;;;22.00;99.90;;;22.48;67.79;95093.56;5085661;28;21052;-56
2022/06/14 06:19:08;;;;;;;6.00;5.50;;;22.00;99.90;;;22.53;67.64;95097.28;5085308;28;20846;-55
2022/06/14 06:21:39;;;;;;;6.13;5.60;;;22.10;99.90;;;22.61;67.42;95095.41;5080484;28;20551;-56
2022/06/14 06:24:10;;;;;;;7.37;5.90;;;22.10;99.90;;;22.67;67.19;95103.44;5088783;28;20453;-56
2022/06/14 06:26:40;;;;;;;6.23;5.63;;;22.20;99.90;;;22.73;66.76;95101.78;5084871;28;20449;-55
2022/06/14 06:29:12;;;;;;;11.20;7.10;;;22.20;99.90;;;22.81;66.62;95104.25;5085089;28;20481;-54
2022/06/14 06:31:40;;;;;;;24.70;6.30;;;22.30;99.90;;;22.88;67.10;95096.16;5083543;28;20446;-56
2022/06/14 06:34:10;;;;;;;6.33;5.53;;;22.40;99.90;;;22.97;66.25;95096.75;5085335;28;20537;-53
2022/06/14 06:36:58;;;;;;;5.60;4.83;;;22.50;99.90;;;23.06;66.81;95095.50;5083972;28;20450;-53
2022/06/14 06:39:46;;;;;;;8.43;6.40;;;22.60;99.90;;;23.16;65.85;95098.59;5082599;28;20446;-55
2022/06/14 06:42:19;;;;;;;8.97;5.40;;;22.70;99.90;;;23.24;65.63;95106.41;5081116;28;20507;-55
2022/06/14 06:44:56;;;;;;;120.53;107.23;;;22.80;99.80;;;23.33;65.88;95106.97;5083830;28;20484;-57
2022/06/14 06:47:31;;;;;;;19.53;14.30;;;22.90;99.70;;;23.43;66.07;95111.88;5079955;28;20460;-57
2022/06/14 06:50:20;;;;;;;8.03;7.13;;;22.90;99.60;;;23.53;65.04;95111.41;5085400;28;20815;-56
2022/06/14 06:52:56;;;;;;;9.43;5.77;;;23.00;99.40;;;23.59;64.50;95114.09;5082705;28;20442;-56
2022/06/14 06:55:30;;;;;;;9.53;5.43;;;23.10;99.10;;;23.67;64.92;95121.06;5078872;28;20538;-54
2022/06/14 06:57:58;;;;;;;11.83;5.60;;;23.10;98.90;;;23.72;64.49;95123.06;5086529;28;20896;-56
2022/06/14 07:00:26;;;;;;;6.70;5.27;;;23.30;98.60;;;23.78;63.58;95119.53;5086244;28;20527;-54
2022/06/14 07:02:56;;;;;;;5.70;5.20;;;23.30;98.30;;;23.85;63.70;95120.34;5085002;28;20450;-57
2022/06/14 07:05:24;;;;;;;8.23;5.00;;;23.40;98.30;;;23.92;63.71;95121.13;5074538;28;20990;-53
2022/06/14 07:07:56;;;;;;;6.27;5.67;;;23.40;98.30;;;24.04;64.39;95118.56;5088410;28;20446;-56
2022/06/14 07:10:32;;;;;;;7.60;6.80;;;23.50;98.30;;;24.15;64.02;95119.72;5074957;28;21102;-55
2022/06/14 07:13:03;;;;;;;6.40;5.77;;;23.60;98.30;;;24.25;63.83;95114.69;5087621;28;20441;-57
2022/06/14 07:15:35;;;;;;;6.23;5.43;;;23.70;98.20;;;24.37;63.74;95112.13;5084088;28;20466;-55
2022/06/14 07:18:13;;;;;;;8.03;5.67;;;23.80;98.10;;;24.58;63.31;95108.22;5081896;28;20820;-58
2022/06/14 07:20:49;;;;;;;7.97;5.30;;;24.00;98.00;;;24.79;62.86;95114.25;5080164;28;20819;-55
2022/06/14 07:23:25;;;;;;;8.43;5.43;;;24.20;97.90;;;24.98;62.24;95115.88;5083574;28;20521;-54
2022/06/14 07:26:04;;;;;;;6.83;5.57;;;24.40;97.50;;;25.24;61.85;95112.06;5084046;28;20518;-55
2022/06/14 07:28:37;;;;;;;5.53;5.13;;;24.70;97.50;;;25.63;61.36;95113.69;5083701;28;20532;-55
2022/06/14 07:31:08;;;;;;;9.63;4.97;;;24.90;97.10;;;25.95;60.74;95116.97;5083225;28;21045;-56
2022/06/14 07:33:36;;;;;;;6.20;5.10;;;25.30;96.70;;;26.25;60.27;95118.81;5083142;28;20464;-57
2022/06/14 07:36:11;;;;;;;5.50;4.87;;;25.60;96.40;;;26.65;59.88;95119.00;5084294;28;20552;-56
2022/06/14 07:38:47;;;;;;;12.53;5.03;;;25.90;96.10;;;27.12;58.44;95120.81;5084912;28;20449;-55
2022/06/14 07:41:16;;;;;;;4.23;4.03;;;26.40;95.40;;;27.57;57.08;95122.03;5080192;28;20470;-57
2022/06/14 07:43:50;;;;;;;7.30;5.43;;;26.80;94.10;;;28.01;56.24;95114.25;5086284;28;20455;-55
2022/06/14 07:46:23;;;;;;;5.47;5.00;;;27.30;93.70;;;28.41;55.89;95126.81;5081834;28;20514;-54
2022/06/14 07:48:54;;;;;;;7.33;4.70;;;27.60;92.90;;;28.63;54.58;95123.41;5080953;28;20450;-59
2022/06/14 07:51:26;;;;;;;8.43;4.57;;;27.90;92.10;;;28.72;53.26;95127.34;5082342;28;20461;-54
2022/06/14 07:53:58;;;;;;;5.37;4.00;;;28.10;91.10;;;28.81;53.81;95122.31;5082145;28;20464;-55
2022/06/14 07:56:30;;;;;;;4.60;4.07;;;28.20;90.60;;;28.97;53.96;95126.06;5079981;28;20473;-57
2022/06/14 07:59:00;;;;;;;7.17;4.77;;;28.30;90.40;;;29.11;52.81;95127.34;5083830;28;20446;-54
2022/06/14 08:01:34;;;;;;;6.77;4.40;;;28.50;90.00;;;29.25;52.54;95122.41;5082912;28;20994;-55
2022/06/14 08:04:03;;;;;;;8.47;4.20;;;28.60;87.90;;;29.36;52.46;95123.34;5076502;28;20960;-57
2022/06/14 08:06:34;;;;;;;3.53;3.33;;;28.70;87.20;;;29.54;51.86;95124.91;5084954;28;21085;-54
2022/06/14 08:09:06;;;;;;;9.40;3.50;;;28.90;87.00;;;29.82;49.17;95117.66;5077709;28;20436;-54
2022/06/14 08:11:39;;;;;;;3.70;3.40;;;29.10;82.00;;;30.07;49.51;95119.00;5083159;28;20220;-55
2022/06/14 08:14:11;;;;;;;10.07;4.67;;;29.40;82.50;;;30.35;47.90;95123.31;5078123;28;20203;-57
2022/06/14 08:16:39;;;;;;;10.87;3.40;;;29.60;79.80;;;30.60;46.71;95117.31;5082753;28;20464;-59
2022/06/14 08:19:09;;;;;;;5.40;3.60;;;29.90;75.50;;;30.76;48.11;95118.25;5084202;28;20999;-54
2022/06/14 08:21:40;;;;;;;8.50;3.37;;;30.00;77.30;;;30.81;47.88;95118.25;5076636;28;20231;-58
2022/06/14 08:24:10;;;;;;;12.77;4.13;;;30.20;75.40;;;30.85;46.02;95118.56;5085548;28;20286;-57
2022/06/14 08:26:40;;;;;;;4.40;3.23;;;30.20;72.30;;;30.82;46.05;95116.38;5081841;28;20665;-56
2022/06/14 08:29:11;;;;;;;5.70;3.47;;;30.30;72.00;;;30.88;45.83;95107.19;5082524;28;20303;-57
2022/06/14 08:31:42;;;;;;;5.00;3.70;;;30.30;71.30;;;30.97;45.97;95107.50;5080655;28;20553;-58
2022/06/14 08:34:13;;;;;;;3.77;3.47;;;30.30;71.10;;;31.12;46.86;95117.66;5083356;28;20195;-55
2022/06/14 08:36:45;;;;;;;3.87;3.37;;;30.50;72.40;;;31.37;46.18;95109.66;5081121;28;20609;-56
2022/06/14 08:39:17;;;;;;;6.93;3.90;;;30.70;72.40;;;31.61;45.62;95103.78;5083674;28;20215;-53
2022/06/14 08:41:59;;;;;;;16.40;3.80;;;30.80;71.40;;;31.84;45.41;95107.94;5083400;28;20335;-56
2022/06/14 08:44:29;;;;;;;8.63;3.70;;;31.10;70.10;;;32.04;45.51;95112.59;5081101;28;20207;-55
2022/06/14 08:47:11;;;;;;;10.43;3.67;;;31.30;69.60;;;32.27;43.24;95105.00;5084495;28;20244;-54
2022/06/14 08:49:50;;;;;;;11.98;3.25;;;31.50;66.20;;;32.43;43.79;95100.41;5083177;28;20234;-56
2022/06/14 08:53:24;;;;;;;4.07;3.67;;;31.70;66.50;;;32.64;40.74;95101.19;5079744;28;20569;-56
2022/06/14 08:56:09;;;;;;;3.58;3.30;;;31.90;63.10;;;32.67;41.00;95100.69;5017243;28;20316;-56
2022/06/14 08:59:34;;;;;;;12.00;3.53;;;32.00;61.60;;;32.57;40.88;95097.94;5080607;28;20214;-56
2022/06/14 09:02:30;;;;;;;3.97;3.65;;;32.00;59.10;;;32.43;41.98;95105.84;5078314;28;20317;-58
2022/06/14 09:05:47;;;;;;;5.53;3.83;;;31.80;59.70;;;32.42;41.83;95102.28;5077483;28;20227;-56
2022/06/14 09:09:07;;;;;;;6.80;3.85;;;31.80;61.50;;;32.44;39.97;95097.41;5067409;28;20230;-56
2022/06/14 09:12:52;;;;;;;5.43;3.23;;;31.80;57.00;;;32.50;40.41;95107.22;5081710;28;20220;-57
2022/06/14 09:16:06;;;;;;;8.98;3.30;;;31.80;58.00;;;32.70;40.96;95097.41;5068312;28;20227;-52
2022/06/14 09:18:56;;;;;;;5.95;3.00;;;32.00;57.30;;;32.77;38.84;95106.13;5076235;28;20706;-55
2022/06/14 09:21:32;;;;;;;3.72;3.08;;;32.10;57.40;;;32.64;40.89;95103.91;5079736;28;20319;-56
2022/06/14 09:24:20;;;;;;;4.65;3.05;;;32.10;57.70;;;32.58;40.31;95110.47;5084507;28;20199;-57
2022/06/14 09:27:00;;;;;;;6.93;3.50;;;32.00;56.30;;;32.58;40.55;95099.56;5083482;28;20202;-57
2022/06/14 09:30:06;;;;;;;20.50;4.13;;;31.90;58.10;;;32.69;38.33;95091.16;5078490;28;20215;-56
2022/06/14 09:33:13;;;;;;;6.35;3.47;;;32.00;55.00;;;32.75;39.63;95089.25;5058082;28;20211;-56
2022/06/14 09:36:40;;;;;;;8.38;3.97;;;32.10;56.70;;;32.73;39.48;95091.41;5078801;28;20234;-57
2022/06/14 09:39:48;;;;;;;7.82;3.88;;;32.10;55.60;;;32.73;39.60;95101.50;5078653;28;20215;-56
2022/06/14 09:42:49;;;;;;;8.73;3.03;;;32.10;57.20;;;32.84;39.82;95103.94;5079883;28;20273;-56
2022/06/14 09:45:55;;;;;;;3.78;3.53;;;32.20;56.30;;;32.81;39.82;95111.84;5081795;28;20241;-56
2022/06/14 09:48:47;;;;;;;11.88;4.05;;;32.20;56.10;;;32.70;39.35;95100.13;5079639;28;20202;-54
2022/06/14 09:52:14;;;;;;;7.00;3.10;;;32.10;54.90;;;32.61;39.98;95101.75;5080011;28;20610;-57
2022/06/14 09:55:19;;;;;;;8.57;4.68;;;32.00;56.10;;;32.62;38.36;95108.84;5051618;28;20227;-57
2022/06/14 09:58:28;;;;;;;10.30;4.47;;;32.00;54.60;;;32.59;39.41;95112.91;5066294;28;20195;-53
2022/06/14 10:00:59;;;;;;;3.90;3.55;;;32.00;56.10;;;32.57;40.32;95109.66;5082399;28;20227;-55
2022/06/14 10:04:04;;;;;;;5.57;3.80;;;31.90;55.80;;;32.30;39.95;95115.34;5084151;28;20199;-55
2022/06/14 10:07:07;;;;;;;7.10;3.95;;;31.80;55.30;;;31.88;40.78;95113.63;5079861;28;20245;-57
2022/06/14 10:09:48;;;;;;;5.97;3.72;;;31.50;56.40;;;31.62;41.92;95108.94;5022888;28;20233;-55
2022/06/14 10:12:31;;;;;;;6.57;2.80;;;31.20;57.50;;;31.49;39.30;95123.00;5085445;28;20286;-54
2022/06/14 10:15:03;;;;;;;1.90;1.80;;;31.00;56.40;;;31.33;39.24;95113.97;5083669;28;20960;-55
2022/06/14 10:18:03;;;;;;;3.00;2.08;;;30.80;53.70;;;31.16;35.21;95114.16;5084878;28;20199;-54
2022/06/14 10:20:46;;;;;;;14.30;2.00;;;30.70;50.40;;;30.88;37.83;95121.56;5084767;28;20238;-56
2022/06/14 10:23:30;;;;;;;3.63;2.00;;;30.40;52.30;;;30.62;37.66;95114.34;5078149;28;20204;-56
2022/06/14 10:29:05;;;;;;;2.63;2.43;;;29.80;52.10;;;29.90;38.48;95114.50;5081013;28;20210;-56
2022/06/14 10:31:41;;;;;;;2.10;1.77;;;29.40;52.30;;;29.51;38.69;95111.88;5082450;28;20239;-54
2022/06/14 10:34:13;;;;;;;6.13;2.43;;;29.10;52.60;;;29.08;39.19;95103.47;5082585;28;20195;-58
2022/06/14 10:37:02;;;;;;;3.50;1.57;;;28.70;52.30;;;28.64;37.68;95097.97;5084118;28;20245;-56
2022/06/14 10:39:53;;;;;;;6.13;1.87;;;28.30;51.80;;;28.22;38.99;95095.66;5078963;28;20196;-55
2022/06/14 10:42:24;;;;;;;13.07;2.40;;;27.90;52.50;;;27.95;39.39;95095.41;5083045;28;20204;-56
2022/06/14 10:44:57;;;;;;;7.13;2.60;;;27.50;53.40;;;27.68;40.37;95096.84;5087083;28;20469;-55
2022/06/14 10:47:43;;;;;;;4.17;2.20;;;27.30;54.00;;;27.50;39.71;95087.06;5076415;28;20446;-55
2022/06/14 10:50:47;;;;;;;8.57;2.23;;;27.10;53.70;;;27.40;39.81;95083.34;5084337;28;21017;-56
2022/06/14 10:53:22;;;;;;;4.67;2.50;;;26.90;54.40;;;27.28;40.92;95083.34;5075919;28;20459;-54
2022/06/14 10:56:16;;;;;;;4.50;1.93;;;26.80;55.20;;;27.18;41.43;95076.66;5083750;28;20882;-55
2022/06/14 10:59:48;;;;;;;2.50;2.10;;;26.70;55.70;;;27.17;41.99;95080.44;5078803;28;20461;-54
2022/06/14 11:02:29;;;;;;;4.03;2.77;;;26.60;56.60;;;27.17;42.58;95085.84;5078338;28;20533;-54